Time;durP1;ratioP1;P1;durP2;ratioP2;P2;SDS_P1;SDS_P2;PMS_P1;PMS_P2;Temp;Humidity;BMP_temperature;BMP_pressure;BME280_temperature;BME280_humidity;BME280_pressure;Samples;Min_cycle;Max_cycle;Signal;HPM_P1;HPM_P2
2022/04/25 00:01:10;;;;;;;0.60;0.60;;;11.20;99.90;;;;;;5069768;28;20215;-64
2022/04/25 00:03:37;;;;;;;0.50;0.50;;;11.00;99.90;;;;;;5064852;28;20242;-63
2022/04/25 00:06:06;;;;;;;0.60;0.60;;;11.00;99.90;;;;;;5069774;28;20588;-62
2022/04/25 00:08:33;;;;;;;0.50;0.50;;;11.00;99.90;;;;;;5069421;28;20207;-63
2022/04/25 00:11:00;;;;;;;0.57;0.57;;;11.00;99.90;;;;;;5070107;28;20290;-64
2022/04/25 00:13:27;;;;;;;0.40;0.40;;;11.00;99.90;;;;;;5069313;28;20210;-63
2022/04/25 00:15:54;;;;;;;0.60;0.60;;;11.00;99.90;;;;;;5070058;28;20294;-63
2022/04/25 00:18:21;;;;;;;0.60;0.60;;;11.10;99.90;;;;;;5069401;28;20211;-63
2022/04/25 00:20:48;;;;;;;0.50;0.50;;;11.10;99.90;;;;;;5069762;28;20222;-63
2022/04/25 00:23:17;;;;;;;0.40;0.40;;;11.10;99.90;;;;;;5069987;28;20203;-63
2022/04/25 00:25:44;;;;;;;0.57;0.57;;;11.10;99.90;;;;;;5070098;28;20290;-63
2022/04/25 00:28:10;;;;;;;0.60;0.60;;;11.10;99.90;;;;;;5067291;28;20230;-63
2022/04/25 00:30:37;;;;;;;0.70;0.70;;;11.00;99.90;;;;;;5069607;28;20231;-63
2022/04/25 00:33:04;;;;;;;0.53;0.53;;;10.90;99.90;;;;;;5069681;28;20639;-63
2022/04/25 00:35:31;;;;;;;0.60;0.60;;;10.90;99.90;;;;;;5069928;28;20286;-64
2022/04/25 00:37:58;;;;;;;0.53;0.53;;;11.00;99.90;;;;;;5068940;28;20657;-64
2022/04/25 00:40:27;;;;;;;0.60;0.60;;;11.10;99.90;;;;;;5067955;28;20287;-64
2022/04/25 00:42:53;;;;;;;0.60;0.60;;;11.00;99.90;;;;;;5069842;28;20206;-64
2022/04/25 00:45:21;;;;;;;0.60;0.60;;;11.00;99.90;;;;;;5070417;28;20298;-64
2022/04/25 00:47:47;;;;;;;0.50;0.50;;;11.10;99.90;;;;;;5070639;28;20269;-64
2022/04/25 00:50:15;;;;;;;0.50;0.50;;;11.10;99.90;;;;;;5070031;28;20245;-66
2022/04/25 00:52:42;;;;;;;0.50;0.50;;;11.10;99.90;;;;;;5069959;28;20683;-66
2022/04/25 00:55:11;;;;;;;0.43;0.43;;;11.20;99.90;;;;;;5066787;28;20211;-64
2022/04/25 00:57:40;;;;;;;0.30;0.30;;;11.20;99.90;;;;;;5064858;28;20315;-63
2022/04/25 01:00:09;;;;;;;0.50;0.50;;;11.20;99.90;;;;;;5092319;22;20868;-68
2022/04/25 01:02:37;;;;;;;0.47;0.47;;;11.20;99.90;;;;;;5089068;28;20289;-68
2022/04/25 01:05:05;;;;;;;0.53;0.53;;;11.20;99.90;;;;;;5093131;28;20289;-67
2022/04/25 01:07:32;;;;;;;0.40;0.40;;;11.10;99.90;;;;;;5089440;28;20202;-67
2022/04/25 01:10:00;;;;;;;0.30;0.30;;;11.10;99.90;;;;;;5092908;28;20222;-70
2022/04/25 01:12:27;;;;;;;0.50;0.50;;;11.10;99.90;;;;;;5096138;28;20769;-70
2022/04/25 01:15:00;;;;;;;0.30;0.30;;;11.10;99.90;;;;;;5096019;28;20226;-69
2022/04/25 01:17:27;;;;;;;0.53;0.53;;;11.00;99.90;;;;;;5100939;28;20268;-68
2022/04/25 01:19:54;;;;;;;0.33;0.33;;;11.10;99.90;;;;;;5099069;28;20222;-69
2022/04/25 01:22:25;;;;;;;0.50;0.50;;;11.10;99.90;;;;;;5099809;28;20206;-68
2022/04/25 01:27:39;;;;;;;0.37;0.37;;;11.20;99.90;;;;;;5075899;28;20206;-69
2022/04/25 01:30:09;;;;;;;0.50;0.50;;;11.20;99.90;;;;;;5076668;28;20241;-68
2022/04/25 01:32:37;;;;;;;0.50;0.50;;;11.20;99.90;;;;;;5085539;28;20195;-68
2022/04/25 01:35:05;;;;;;;0.30;0.30;;;11.30;99.90;;;;;;5086974;28;20207;-68
2022/04/25 01:37:33;;;;;;;0.40;0.40;;;11.40;99.90;;;;;;5096154;28;20313;-69
2022/04/25 01:40:01;;;;;;;0.27;0.27;;;11.30;99.90;;;;;;5096245;28;20261;-69
2022/04/25 01:42:28;;;;;;;0.40;0.40;;;11.30;99.90;;;;;;5096466;28;20728;-70
2022/04/25 01:44:55;;;;;;;0.40;0.40;;;11.20;99.90;;;;;;5095759;28;20241;-69
2022/04/25 01:47:22;;;;;;;0.40;0.40;;;11.10;99.90;;;;;;5095403;28;20277;-68
2022/04/25 01:49:49;;;;;;;0.40;0.40;;;11.00;99.90;;;;;;5095760;28;20254;-69
2022/04/25 01:52:24;;;;;;;0.60;0.60;;;11.10;99.90;;;;;;5095241;28;20294;-69
2022/04/25 01:54:51;;;;;;;0.87;0.60;;;10.90;99.90;;;;;;5095794;28;20237;-69
2022/04/25 01:57:19;;;;;;;0.50;0.50;;;10.80;99.90;;;;;;5094740;28;20666;-67
2022/04/25 01:59:46;;;;;;;0.43;0.43;;;10.80;99.90;;;;;;5094993;28;20234;-68
2022/04/25 02:02:14;;;;;;;0.77;0.67;;;10.80;99.90;;;;;;5095246;28;20298;-68
2022/04/25 02:04:42;;;;;;;0.60;0.60;;;10.80;99.90;;;;;;5095269;28;20256;-68
2022/04/25 02:07:11;;;;;;;0.40;0.40;;;10.70;99.90;;;;;;5095045;28;20703;-68
2022/04/25 02:09:39;;;;;;;0.70;0.70;;;10.70;99.90;;;;;;5094607;28;20630;-69
2022/04/25 02:12:08;;;;;;;0.57;0.57;;;10.80;99.90;;;;;;5095309;28;20286;-69
2022/04/25 02:14:37;;;;;;;0.70;0.70;;;10.70;99.90;;;;;;5094924;28;20285;-68
2022/04/25 02:17:04;;;;;;;0.60;0.60;;;11.00;99.90;;;;;;5095332;28;20236;-68
2022/04/25 02:19:38;;;;;;;0.70;0.70;;;10.80;99.90;;;;;;5094855;28;20291;-68
2022/04/25 02:22:05;;;;;;;0.50;0.50;;;11.00;99.90;;;;;;5094047;28;20206;-68
2022/04/25 02:24:32;;;;;;;0.50;0.50;;;11.00;99.90;;;;;;5095260;28;20289;-66
2022/04/25 02:26:59;;;;;;;0.50;0.50;;;11.00;99.90;;;;;;5102608;28;20209;-69
2022/04/25 02:29:26;;;;;;;0.60;0.60;;;11.20;99.90;;;;;;5110561;28;20246;-69
2022/04/25 02:31:54;;;;;;;0.50;0.50;;;11.20;99.90;;;;;;5107370;28;20261;-68
2022/04/25 02:34:21;;;;;;;0.60;0.60;;;11.30;99.90;;;;;;5096746;28;20289;-69
2022/04/25 02:36:48;;;;;;;0.60;0.60;;;11.20;99.90;;;;;;5094647;28;20207;-68
2022/04/25 02:39:15;;;;;;;0.80;0.80;;;11.20;99.90;;;;;;5093840;28;20313;-70
2022/04/25 02:41:42;;;;;;;0.60;0.60;;;11.30;99.90;;;;;;5094424;28;20293;-69
2022/04/25 02:44:09;;;;;;;0.70;0.70;;;11.40;99.90;;;;;;5094580;28;20294;-68
2022/04/25 02:46:36;;;;;;;0.50;0.50;;;11.40;99.90;;;;;;5094445;28;20248;-69
2022/04/25 02:49:04;;;;;;;0.50;0.50;;;11.40;99.90;;;;;;5093828;28;20286;-68
2022/04/25 02:51:31;;;;;;;0.60;0.60;;;11.40;99.90;;;;;;5094946;28;20290;-70
2022/04/25 02:53:58;;;;;;;0.50;0.50;;;11.40;99.90;;;;;;5099876;28;20245;-70
2022/04/25 02:56:25;;;;;;;0.60;0.60;;;11.30;99.90;;;;;;5097138;28;20206;-67
2022/04/25 02:58:51;;;;;;;0.63;0.63;;;11.30;99.90;;;;;;5083753;28;20245;-68
2022/04/25 03:01:18;;;;;;;0.53;0.53;;;11.40;99.90;;;;;;5074748;28;20286;-69
2022/04/25 03:03:45;;;;;;;0.60;0.60;;;11.40;99.90;;;;;;5094546;28;20253;-69
2022/04/25 03:06:13;;;;;;;0.47;0.47;;;11.30;99.90;;;;;;5093969;28;20285;-67
2022/04/25 03:08:41;;;;;;;0.50;0.50;;;11.40;99.90;;;;;;5093314;28;20723;-68
2022/04/25 03:11:09;;;;;;;0.60;0.60;;;11.30;99.90;;;;;;5094190;28;20207;-68
2022/04/25 03:13:38;;;;;;;0.67;0.40;;;11.30;99.90;;;;;;5093953;28;20209;-69
2022/04/25 03:16:06;;;;;;;0.37;0.37;;;11.30;99.90;;;;;;5097013;28;20209;-67
2022/04/25 03:18:33;;;;;;;1.53;0.60;;;11.20;99.90;;;;;;5096989;28;20219;-68
2022/04/25 03:21:00;;;;;;;0.30;0.30;;;11.10;99.90;;;;;;5098713;28;20207;-69
2022/04/25 03:23:29;;;;;;;0.50;0.50;;;11.20;99.90;;;;;;5097971;28;20699;-69
2022/04/25 03:25:56;;;;;;;0.50;0.50;;;11.10;99.90;;;;;;5094386;28;20209;-69
2022/04/25 03:28:23;;;;;;;0.50;0.50;;;11.10;99.90;;;;;;5093394;28;20289;-69
2022/04/25 03:30:50;;;;;;;0.60;0.60;;;11.00;99.90;;;;;;5093512;28;20229;-68
2022/04/25 03:33:19;;;;;;;0.40;0.40;;;11.00;99.90;;;;;;5094353;28;20199;-69
2022/04/25 03:35:46;;;;;;;0.50;0.50;;;10.90;99.90;;;;;;5095517;28;20335;-70
2022/04/25 03:38:14;;;;;;;0.40;0.40;;;10.90;99.90;;;;;;5096585;28;20222;-68
2022/04/25 03:40:43;;;;;;;0.63;0.50;;;10.80;99.90;;;;;;5099141;28;20696;-68
2022/04/25 03:43:09;;;;;;;0.40;0.40;;;10.80;99.90;;;;;;5103770;28;20234;-68
2022/04/25 03:45:37;;;;;;;0.50;0.50;;;10.90;99.90;;;;;;5105791;28;20197;-66
2022/04/25 03:48:05;;;;;;;0.50;0.50;;;10.90;99.90;;;;;;5102577;28;20226;-68
2022/04/25 03:50:32;;;;;;;0.60;0.60;;;11.00;99.90;;;;;;5098716;28;20309;-68
2022/04/25 03:53:06;;;;;;;0.60;0.60;;;11.00;99.90;;;;;;5095433;28;20203;-72
2022/04/25 03:58:19;;;;;;;0.70;0.70;;;11.10;99.90;;;;;;5116542;28;20236;-66
2022/04/25 04:00:46;;;;;;;0.90;0.90;;;11.10;99.90;;;;;;5112159;28;20237;-69
2022/04/25 04:03:14;;;;;;;0.63;0.63;;;11.10;99.90;;;;;;5097401;28;20289;-69
2022/04/25 04:05:42;;;;;;;0.80;0.80;;;11.10;99.90;;;;;;5096246;28;20210;-70
2022/04/25 04:08:09;;;;;;;0.80;0.80;;;11.10;99.90;;;;;;5096728;28;20214;-67
2022/04/25 04:10:36;;;;;;;0.80;0.80;;;11.10;99.90;;;;;;5099505;28;20730;-69
2022/04/25 04:13:04;;;;;;;0.70;0.70;;;11.10;99.90;;;;;;5095959;28;20914;-68
2022/04/25 04:15:32;;;;;;;0.63;0.63;;;11.10;99.90;;;;;;5093053;28;20256;-67
2022/04/25 04:17:59;;;;;;;0.40;0.40;;;11.00;99.90;;;;;;5092636;28;20271;-69
2022/04/25 04:20:26;;;;;;;0.60;0.60;;;10.90;99.90;;;;;;5095027;28;20226;-68
2022/04/25 04:22:53;;;;;;;0.60;0.60;;;10.80;99.90;;;;;;5093789;28;20672;-66
2022/04/25 04:25:22;;;;;;;0.43;0.43;;;10.70;99.90;;;;;;5093795;28;20289;-68
2022/04/25 04:27:49;;;;;;;0.43;0.43;;;10.70;99.90;;;;;;5095098;28;20205;-68
2022/04/25 04:30:18;;;;;;;0.50;0.50;;;10.70;99.90;;;;;;5098730;28;20309;-68
2022/04/25 04:32:47;;;;;;;0.60;0.60;;;10.70;99.90;;;;;;5101873;28;20297;-67
2022/04/25 04:36:17;;;;;;;0.50;0.50;;;10.70;99.90;;;;;;5103304;28;20289;-66
2022/04/25 04:38:03;;;;;;;0.93;0.50;;;10.70;99.90;;;;;;5095459;28;20214;-67
2022/04/25 04:40:30;;;;;;;0.60;0.60;;;10.60;99.90;;;;;;5093432;28;20798;-67
2022/04/25 04:42:58;;;;;;;0.70;0.70;;;10.70;99.90;;;;;;5092722;28;20241;-68
2022/04/25 04:45:25;;;;;;;0.60;0.60;;;10.80;99.90;;;;;;5092426;28;20234;-67
2022/04/25 04:47:54;;;;;;;0.80;0.70;;;10.70;99.90;;;;;;5092052;28;20203;-67
2022/04/25 04:50:20;;;;;;;0.60;0.60;;;10.70;99.90;;;;;;5092368;28;20227;-66
2022/04/25 04:52:49;;;;;;;0.60;0.60;;;10.60;99.90;;;;;;5092591;28;20198;-66
2022/04/25 04:55:16;;;;;;;1.00;0.90;;;10.60;99.90;;;;;;5091694;28;20210;-66
2022/04/25 04:57:43;;;;;;;0.80;0.80;;;10.50;99.90;;;;;;5092022;28;20238;-68
2022/04/25 05:00:13;;;;;;;0.70;0.70;;;10.50;99.90;;;;;;5092287;28;20237;-67
2022/04/25 05:02:40;;;;;;;0.70;0.70;;;10.50;99.90;;;;;;5082658;28;20206;-66
2022/04/25 05:05:10;;;;;;;0.70;0.70;;;10.60;99.90;;;;;;5079269;28;20238;-66
2022/04/25 05:07:37;;;;;;;0.50;0.50;;;10.60;99.90;;;;;;5052526;28;20449;-66
2022/04/25 05:10:06;;;;;;;0.60;0.60;;;10.60;99.90;;;;;;5053123;28;20224;-65
2022/04/25 05:12:44;;;;;;;0.63;0.63;;;10.60;99.90;;;;;;5076032;28;20203;-68
2022/04/25 05:15:13;;;;;;;0.80;0.80;;;10.50;99.90;;;;;;5068677;28;20206;-67
2022/04/25 05:17:41;;;;;;;0.93;0.93;;;10.50;99.90;;;;;;5064479;28;20298;-66
2022/04/25 05:20:12;;;;;;;0.80;0.80;;;10.50;99.90;;;;;;5069955;28;20234;-68
2022/04/25 05:22:40;;;;;;;0.97;0.97;;;10.50;99.90;;;;;;5078487;28;20207;-67
2022/04/25 05:25:09;;;;;;;0.83;0.83;;;10.50;99.90;;;;;;5082184;28;20298;-66
2022/04/25 05:27:37;;;;;;;0.83;0.83;;;10.60;99.90;;;;;;5084450;28;20202;-67
2022/04/25 05:30:05;;;;;;;0.80;0.80;;;10.60;99.90;;;;;;5093697;28;20305;-67
2022/04/25 05:32:42;;;;;;;0.73;0.73;;;10.60;99.90;;;;;;5092214;28;20716;-67
2022/04/25 05:35:11;;;;;;;0.80;0.80;;;10.70;99.90;;;;;;5092323;28;20272;-68
2022/04/25 05:37:38;;;;;;;0.80;0.80;;;10.70;99.90;;;;;;5081342;28;20206;-66
2022/04/25 05:40:06;;;;;;;1.10;1.10;;;10.70;99.90;;;;;;5075662;28;20227;-68
2022/04/25 05:42:33;;;;;;;1.00;1.00;;;10.70;99.90;;;;;;5091604;28;20234;-67
2022/04/25 05:45:00;;;;;;;1.10;1.10;;;10.70;99.90;;;;;;5078022;28;20223;-67
2022/04/25 05:47:27;;;;;;;1.03;1.03;;;10.80;99.90;;;;;;5071520;28;20206;-67
2022/04/25 05:52:40;;;;;;;1.10;1.10;;;10.70;99.90;;;;;;5073281;28;20622;-67
2022/04/25 05:55:09;;;;;;;1.20;1.20;;;10.70;99.90;;;;;;5074783;28;20257;-67
2022/04/25 05:57:36;;;;;;;1.13;1.13;;;10.80;99.90;;;;;;5081443;28;20268;-66
2022/04/25 06:00:04;;;;;;;1.03;1.03;;;10.90;99.90;;;;;;5083675;28;20227;-68
2022/04/25 06:02:31;;;;;;;1.00;1.00;;;10.90;99.90;;;;;;5090087;28;20203;-66
2022/04/25 06:04:58;;;;;;;1.13;1.13;;;11.00;99.90;;;;;;5097880;28;20226;-68
2022/04/25 06:07:25;;;;;;;1.10;1.10;;;11.00;99.90;;;;;;5095826;28;20238;-68
2022/04/25 06:09:53;;;;;;;0.97;0.97;;;11.10;99.90;;;;;;5096030;28;20309;-68
2022/04/25 06:12:20;;;;;;;1.20;1.20;;;11.20;99.90;;;;;;5097638;28;20732;-68
2022/04/25 06:14:48;;;;;;;1.30;1.30;;;11.20;99.90;;;;;;5100103;28;20228;-67
2022/04/25 06:17:15;;;;;;;1.13;1.13;;;11.30;99.90;;;;;;5100312;28;20199;-68
2022/04/25 06:19:42;;;;;;;1.30;1.30;;;11.40;99.90;;;;;;5102047;28;20287;-67
2022/04/25 06:22:09;;;;;;;1.00;1.00;;;11.50;99.90;;;;;;5100166;28;20212;-67
2022/04/25 06:24:38;;;;;;;1.20;1.20;;;11.50;99.90;;;;;;5100087;28;20236;-68
2022/04/25 06:27:09;;;;;;;1.20;1.20;;;11.70;99.90;;;;;;5101169;28;20207;-67
2022/04/25 06:29:36;;;;;;;1.10;1.00;;;11.70;99.90;;;;;;5101847;28;20223;-66
2022/04/25 06:32:05;;;;;;;2.20;1.30;;;11.70;99.90;;;;;;5100992;28;20202;-68
2022/04/25 06:34:32;;;;;;;1.03;1.03;;;11.70;99.90;;;;;;5095056;28;20659;-68
2022/04/25 06:36:59;;;;;;;1.30;1.17;;;11.80;99.90;;;;;;5095541;28;20240;-66
2022/04/25 06:39:26;;;;;;;1.00;1.00;;;11.90;99.90;;;;;;5095346;28;20236;-67
2022/04/25 06:41:53;;;;;;;1.00;1.00;;;12.00;99.90;;;;;;5095016;28;20763;-67
2022/04/25 06:44:21;;;;;;;1.10;1.10;;;12.00;99.90;;;;;;5094678;28;20645;-67
2022/04/25 06:46:48;;;;;;;1.20;1.20;;;12.00;99.90;;;;;;5094612;28;20198;-68
2022/04/25 06:49:20;;;;;;;1.03;1.03;;;11.90;99.90;;;;;;5094002;28;20730;-66
2022/04/25 06:51:48;;;;;;;1.83;1.07;;;12.00;99.90;;;;;;5094793;28;20215;-68
2022/04/25 06:54:15;;;;;;;0.90;0.90;;;12.20;99.90;;;;;;5094149;28;20206;-67
2022/04/25 06:56:42;;;;;;;1.07;1.07;;;12.30;99.90;;;;;;5094336;28;20232;-68
2022/04/25 06:59:09;;;;;;;1.10;1.10;;;12.30;99.90;;;;;;5096612;28;20230;-68
2022/04/25 07:01:39;;;;;;;1.50;1.50;;;12.40;99.90;;;;;;5094439;28;20208;-67
2022/04/25 07:04:06;;;;;;;1.40;1.30;;;12.40;99.90;;;;;;5095007;28;20244;-68
2022/04/25 07:06:33;;;;;;;1.40;1.40;;;12.50;99.90;;;;;;5094404;28;20533;-68
2022/04/25 07:09:00;;;;;;;1.13;1.13;;;12.60;99.90;;;;;;5092735;28;20654;-68
2022/04/25 07:11:27;;;;;;;1.00;1.00;;;12.70;99.90;;;;;;5094227;28;20259;-68
2022/04/25 07:13:55;;;;;;;1.17;1.17;;;12.70;99.90;;;;;;5093632;28;20710;-67
2022/04/25 07:16:24;;;;;;;1.40;1.40;;;12.70;99.90;;;;;;5093419;28;20764;-68
2022/04/25 07:18:52;;;;;;;1.03;1.03;;;12.80;99.90;;;;;;5092739;28;20234;-67
2022/04/25 07:29:33;;;;;;;1.20;1.20;;;13.20;99.90;;;;;;5092541;28;20733;-66
2022/04/25 07:32:00;;;;;;;1.23;1.23;;;13.20;99.90;;;;;;5093209;28;20272;-67
2022/04/25 07:34:28;;;;;;;1.20;1.20;;;13.20;99.90;;;;;;5093488;28;20324;-66
2022/04/25 07:36:55;;;;;;;1.40;1.40;;;13.20;99.90;;;;;;5093830;28;20686;-67
2022/04/25 07:39:23;;;;;;;1.20;1.20;;;13.20;99.90;;;;;;5092792;28;20226;-66
2022/04/25 07:41:51;;;;;;;1.20;1.20;;;13.20;99.90;;;;;;5093891;28;20506;-68
2022/04/25 07:44:18;;;;;;;1.47;1.47;;;13.20;99.90;;;;;;5093449;28;20575;-67
2022/04/25 07:46:46;;;;;;;1.90;1.80;;;13.30;99.90;;;;;;5092951;28;20199;-67
2022/04/25 07:49:13;;;;;;;1.70;1.60;;;13.30;99.90;;;;;;5092263;28;20215;-67
2022/04/25 07:51:41;;;;;;;1.40;1.40;;;13.30;99.90;;;;;;5093390;28;20297;-67
2022/04/25 07:54:09;;;;;;;1.40;1.40;;;13.30;99.90;;;;;;5094094;28;20238;-67
2022/04/25 07:56:37;;;;;;;1.90;1.80;;;13.20;99.90;;;;;;5094003;28;20207;-66
2022/04/25 07:59:05;;;;;;;1.90;1.80;;;13.00;99.90;;;;;;5093395;28;20674;-69
2022/04/25 08:01:33;;;;;;;2.00;1.90;;;12.80;99.90;;;;;;5093427;28;20573;-67
2022/04/25 08:04:00;;;;;;;2.10;2.00;;;12.70;99.90;;;;;;5093289;28;20206;-67
2022/04/25 08:06:27;;;;;;;1.97;1.87;;;12.40;99.90;;;;;;5093348;28;20263;-66
2022/04/25 08:08:56;;;;;;;1.60;1.50;;;12.40;99.90;;;;;;5092192;28;20222;-68
2022/04/25 08:11:24;;;;;;;1.40;1.40;;;12.20;99.90;;;;;;5093129;28;20276;-67
2022/04/25 08:19:21;;;;;;;1.97;1.87;;;11.90;99.90;;;;;;5093589;28;20620;-67
2022/04/25 08:21:48;;;;;;;2.00;1.90;;;11.70;99.90;;;;;;5093819;28;20646;-67
2022/04/25 08:24:17;;;;;;;3.37;2.07;;;11.50;99.90;;;;;;5092403;28;20694;-66
2022/04/25 08:26:44;;;;;;;2.17;2.07;;;11.50;99.90;;;;;;5092371;28;20224;-67
2022/04/25 08:29:11;;;;;;;2.13;2.03;;;11.50;99.90;;;;;;5093383;28;20600;-68
2022/04/25 08:31:39;;;;;;;1.50;1.50;;;11.50;99.90;;;;;;5092731;28;20203;-68
2022/04/25 08:34:08;;;;;;;1.70;1.60;;;11.50;99.90;;;;;;5092317;28;20203;-68
2022/04/25 08:36:35;;;;;;;2.30;1.57;;;11.50;99.90;;;;;;5093911;28;20206;-68
2022/04/25 08:39:03;;;;;;;1.20;1.20;;;11.50;99.90;;;;;;5094722;28;20290;-67
2022/04/25 08:41:36;;;;;;;1.10;1.10;;;11.40;99.90;;;;;;5103030;28;20237;-67
2022/04/25 08:44:06;;;;;;;1.00;1.00;;;11.50;99.90;;;;;;5109048;28;20187;-67
2022/04/25 08:46:35;;;;;;;0.90;0.90;;;11.60;99.90;;;;;;5102155;28;20289;-67
2022/04/25 08:49:04;;;;;;;0.73;0.73;;;11.70;99.90;;;;;;5068346;28;20700;-67
2022/04/25 08:51:34;;;;;;;0.93;0.93;;;11.70;99.90;;;;;;5069072;28;20662;-67
2022/04/25 08:54:02;;;;;;;0.80;0.80;;;11.80;99.90;;;;;;5066297;28;20290;-66
2022/04/25 08:56:29;;;;;;;0.80;0.80;;;11.90;99.90;;;;;;5066046;28;20199;-67
2022/04/25 08:58:59;;;;;;;0.80;0.80;;;12.00;99.90;;;;;;5063672;28;20655;-67
2022/04/25 09:01:26;;;;;;;0.90;0.90;;;12.10;99.90;;;;;;5070996;28;20211;-67
2022/04/25 09:03:53;;;;;;;1.00;1.00;;;12.10;99.90;;;;;;5081909;28;20310;-67
2022/04/25 09:06:20;;;;;;;1.00;1.00;;;12.10;99.90;;;;;;5070447;28;20234;-66
2022/04/25 09:08:47;;;;;;;1.90;1.07;;;12.20;99.90;;;;;;5075279;28;20222;-67
2022/04/25 09:14:00;;;;;;;1.00;1.00;;;12.20;99.90;;;;;;5063412;28;20878;-68
2022/04/25 09:16:27;;;;;;;1.10;1.10;;;12.10;99.90;;;;;;5065885;28;20199;-66
2022/04/25 09:18:54;;;;;;;1.30;1.30;;;12.00;99.90;;;;;;5073709;28;20309;-66
2022/04/25 09:21:22;;;;;;;1.30;1.30;;;12.10;99.90;;;;;;5079440;28;20313;-66
2022/04/25 09:23:49;;;;;;;1.30;1.30;;;12.10;99.90;;;;;;5077943;28;20203;-67
2022/04/25 09:26:19;;;;;;;1.00;1.00;;;12.20;99.90;;;;;;5072079;28;20242;-68
2022/04/25 09:28:47;;;;;;;0.90;0.90;;;12.20;99.90;;;;;;5069493;28;20744;-67
2022/04/25 09:31:17;;;;;;;1.00;0.90;;;12.30;99.90;;;;;;5061074;28;20615;-68
2022/04/25 09:33:45;;;;;;;0.80;0.80;;;12.30;99.90;;;;;;5062737;28;20299;-66
2022/04/25 09:36:12;;;;;;;0.70;0.70;;;12.50;99.90;;;;;;5060692;28;20246;-68
2022/04/25 09:38:41;;;;;;;0.73;0.73;;;12.70;99.90;;;;;;5065159;28;20200;-68
2022/04/25 09:41:10;;;;;;;0.80;0.80;;;12.90;99.90;;;;;;5077730;28;20230;-66
2022/04/25 09:43:40;;;;;;;0.77;0.77;;;13.00;99.90;;;;;;5078607;28;20302;-68
2022/04/25 09:46:08;;;;;;;0.93;0.93;;;13.10;99.90;;;;;;5076910;28;20235;-67
2022/04/25 09:48:38;;;;;;;0.83;0.60;;;13.20;99.90;;;;;;5083879;28;20203;-68
2022/04/25 09:51:06;;;;;;;0.60;0.60;;;13.20;99.90;;;;;;5064013;28;20204;-67
2022/04/25 09:53:43;;;;;;;0.50;0.50;;;13.20;99.90;;;;;;5062193;28;20242;-68
2022/04/25 09:56:12;;;;;;;0.50;0.50;;;13.20;99.90;;;;;;5072922;28;20218;-66
2022/04/25 09:58:40;;;;;;;0.50;0.50;;;13.30;99.90;;;;;;5076336;28;20196;-66
2022/04/25 10:01:13;;;;;;;0.40;0.40;;;13.40;99.90;;;;;;5080144;28;20237;-67
2022/04/25 10:03:43;;;;;;;0.50;0.50;;;13.70;99.90;;;;;;5087879;28;20200;-67
2022/04/25 10:06:10;;;;;;;0.50;0.50;;;13.80;99.90;;;;;;5095056;28;20234;-70
2022/04/25 10:08:38;;;;;;;0.60;0.60;;;14.00;99.90;;;;;;5079014;28;20195;-68
2022/04/25 10:11:06;;;;;;;0.60;0.60;;;14.30;99.90;;;;;;5071418;28;20199;-67
2022/04/25 10:13:34;;;;;;;0.50;0.50;;;14.40;99.90;;;;;;5074097;28;20199;-67
2022/04/25 10:16:02;;;;;;;0.70;0.70;;;14.40;99.90;;;;;;5061323;28;20208;-67
2022/04/25 10:18:31;;;;;;;1.07;0.60;;;14.30;99.90;;;;;;5068183;28;20217;-67
2022/04/25 10:21:01;;;;;;;0.70;0.70;;;14.30;99.90;;;;;;5066203;28;20298;-67
2022/04/25 10:23:28;;;;;;;1.10;1.10;;;14.20;99.90;;;;;;5064365;28;20226;-68
2022/04/25 10:25:57;;;;;;;0.93;0.93;;;14.10;99.90;;;;;;5062931;28;20279;-68
2022/04/25 10:28:29;;;;;;;0.70;0.70;;;14.10;99.90;;;;;;5081748;28;20190;-67
2022/04/25 10:31:02;;;;;;;0.70;0.70;;;14.20;99.90;;;;;;5075479;28;20202;-66
2022/04/25 10:33:48;;;;;;;0.70;0.70;;;14.30;99.90;;;;;;5060605;28;20191;-68
2022/04/25 10:36:44;;;;;;;0.80;0.80;;;14.30;99.90;;;;;;5074384;28;20199;-67
2022/04/25 10:39:13;;;;;;;0.70;0.70;;;14.50;99.90;;;;;;5073718;28;20231;-67
2022/04/25 10:44:53;;;;;;;0.47;0.47;;;14.70;99.90;;;;;;5069239;28;20240;-67
2022/04/25 10:47:21;;;;;;;0.60;0.60;;;14.70;99.90;;;;;;5064494;28;20549;-67
2022/04/25 10:49:50;;;;;;;0.40;0.40;;;14.70;99.90;;;;;;5064943;28;20215;-65
2022/04/25 10:52:58;;;;;;;0.60;0.60;;;14.90;99.90;;;;;;5063809;28;20593;-66
2022/04/25 10:55:46;;;;;;;0.40;0.40;;;15.20;99.90;;;;;;5070690;28;20718;-67
2022/04/25 10:58:20;;;;;;;0.53;0.53;;;15.80;99.90;;;;;;5067920;28;20609;-66
2022/04/25 11:00:52;;;;;;;0.47;0.47;;;16.00;99.90;;;;;;5067113;28;20275;-66
2022/04/25 11:03:30;;;;;;;0.30;0.30;;;16.30;99.90;;;;;;5071525;28;20205;-67
2022/04/25 11:06:25;;;;;;;0.50;0.50;;;16.50;99.90;;;;;;5067376;28;20282;-67
2022/04/25 11:08:53;;;;;;;1.70;0.63;;;16.60;99.90;;;;;;5074991;28;20237;-66
2022/04/25 11:11:24;;;;;;;0.80;0.80;;;16.80;99.90;;;;;;5066898;28;20196;-67
2022/04/25 11:14:11;;;;;;;0.80;0.80;;;16.80;99.90;;;;;;5067791;28;20238;-67
2022/04/25 11:16:39;;;;;;;0.73;0.73;;;17.00;99.90;;;;;;5077662;28;20225;-66
2022/04/25 11:19:17;;;;;;;0.87;0.50;;;17.00;99.90;;;;;;5063978;28;20223;-66
2022/04/25 11:21:47;;;;;;;0.80;0.80;;;17.30;99.90;;;;;;5065965;28;20226;-68
2022/04/25 11:24:35;;;;;;;0.50;0.50;;;17.40;99.90;;;;;;5073252;28;20196;-68
2022/04/25 11:27:03;;;;;;;0.50;0.50;;;17.40;99.90;;;;;;5063234;28;20204;-68
2022/04/25 11:29:30;;;;;;;0.40;0.40;;;17.50;99.90;;;;;;5067921;28;20253;-68
2022/04/25 11:32:28;;;;;;;1.40;0.57;;;17.70;99.90;;;;;;5068519;28;20230;-67
2022/04/25 11:34:59;;;;;;;0.40;0.40;;;17.80;99.90;;;;;;5066110;28;20900;-66
2022/04/25 11:37:28;;;;;;;0.40;0.40;;;17.90;99.90;;;;;;5070460;28;20206;-68
2022/04/25 11:39:58;;;;;;;0.50;0.50;;;18.10;99.90;;;;;;5074046;28;20613;-69
2022/04/25 11:42:29;;;;;;;0.30;0.30;;;18.30;99.90;;;;;;5065278;28;20203;-69
2022/04/25 11:44:56;;;;;;;0.33;0.33;;;18.20;99.90;;;;;;5062996;28;20235;-67
2022/04/25 11:47:23;;;;;;;0.40;0.40;;;18.00;99.90;;;;;;5066656;28;20200;-68
2022/04/25 11:49:57;;;;;;;0.50;0.50;;;17.90;99.90;;;;;;5064538;28;20223;-68
2022/04/25 11:52:26;;;;;;;0.50;0.50;;;17.60;99.90;;;;;;5069925;28;20295;-68
2022/04/25 11:54:54;;;;;;;0.57;0.57;;;17.40;99.90;;;;;;5075325;28;20218;-67
2022/04/25 11:57:23;;;;;;;0.40;0.40;;;17.20;99.90;;;;;;5067727;28;20671;-67
2022/04/25 12:00:05;;;;;;;0.50;0.50;;;17.20;99.90;;;;;;5075972;28;20234;-67
2022/04/25 12:02:36;;;;;;;0.33;0.33;;;17.30;99.90;;;;;;5069064;28;20649;-67
2022/04/25 12:05:04;;;;;;;0.50;0.50;;;17.40;99.90;;;;;;5065926;28;20210;-67
2022/04/25 12:07:31;;;;;;;0.43;0.43;;;17.40;99.90;;;;;;5065093;28;20222;-66
2022/04/25 12:15:37;;;;;;;0.50;0.50;;;17.40;99.90;;;;;;5068626;28;20263;-67
2022/04/25 12:18:16;;;;;;;0.40;0.40;;;17.30;99.90;;;;;;5067708;28;20203;-68
2022/04/25 12:20:47;;;;;;;0.40;0.40;;;17.30;99.90;;;;;;5069113;28;20223;-67
2022/04/25 12:23:22;;;;;;;0.37;0.37;;;17.20;99.90;;;;;;5065534;28;20257;-67
2022/04/25 12:25:49;;;;;;;0.30;0.30;;;17.30;99.90;;;;;;5072271;28;20277;-68
2022/04/25 12:28:20;;;;;;;0.50;0.50;;;17.50;99.90;;;;;;5075513;28;20242;-66
2022/04/25 12:30:49;;;;;;;0.37;0.37;;;17.70;99.90;;;;;;5081637;28;20584;-67
2022/04/25 12:33:17;;;;;;;0.40;0.40;;;17.80;99.90;;;;;;5078761;28;20209;-68
2022/04/25 12:35:46;;;;;;;0.50;0.50;;;17.80;99.90;;;;;;5080719;28;20229;-67
2022/04/25 12:38:39;;;;;;;0.50;0.50;;;17.90;99.90;;;;;;5079871;28;20196;-67
2022/04/25 12:41:07;;;;;;;0.50;0.50;;;18.10;99.90;;;;;;5075214;28;20273;-69
2022/04/25 12:43:42;;;;;;;0.40;0.40;;;18.40;99.90;;;;;;5091928;28;20202;-67
2022/04/25 12:46:09;;;;;;;0.70;0.70;;;18.80;99.90;;;;;;5092574;28;20202;-68
2022/04/25 12:48:56;;;;;;;0.50;0.50;;;18.80;99.90;;;;;;5092405;28;20233;-68
2022/04/25 12:51:31;;;;;;;0.47;0.47;;;18.60;99.90;;;;;;5092375;28;20209;-68
2022/04/25 12:53:58;;;;;;;0.53;0.53;;;18.40;99.90;;;;;;5092214;28;20898;-68
2022/04/25 12:56:26;;;;;;;0.50;0.50;;;18.50;99.90;;;;;;5092309;28;20203;-69
2022/04/25 12:58:55;;;;;;;0.30;0.30;;;18.50;99.90;;;;;;5091141;28;20320;-68
2022/04/25 13:01:33;;;;;;;0.50;0.50;;;18.40;99.90;;;;;;5091625;28;20727;-67
2022/04/25 13:04:14;;;;;;;0.50;0.50;;;18.50;99.90;;;;;;5091949;28;20743;-69
2022/04/25 13:06:42;;;;;;;0.60;0.60;;;18.50;99.90;;;;;;5093910;28;20234;-67
2022/04/25 13:09:10;;;;;;;0.50;0.50;;;18.40;99.90;;;;;;5107223;28;20234;-69
2022/04/25 13:11:38;;;;;;;0.40;0.40;;;18.30;99.90;;;;;;5105127;28;20206;-69
2022/04/25 13:14:07;;;;;;;0.40;0.40;;;18.60;99.90;;;;;;5095973;28;20309;-68
2022/04/25 13:16:34;;;;;;;0.40;0.40;;;18.80;99.90;;;;;;5095911;28;20206;-68
2022/04/25 13:19:00;;;;;;;0.60;0.60;;;19.00;99.90;;;;;;5123191;22;20232;-63
2022/04/25 13:21:27;;;;;;;0.50;0.50;;;19.20;99.90;;;;;;5082979;28;20214;-64
2022/04/25 13:23:55;;;;;;;0.37;0.37;;;19.50;99.90;;;;;;5075793;28;20199;-63
2022/04/25 13:26:22;;;;;;;0.50;0.50;;;19.60;99.90;;;;;;5075647;28;20235;-63
2022/04/25 13:28:49;;;;;;;0.50;0.50;;;19.50;99.90;;;;;;5074600;28;20607;-64
2022/04/25 13:31:17;;;;;;;0.47;0.47;;;19.30;99.90;;;;;;5075241;28;20210;-63